Aviation Digital Data Service (ADDS)

Output produced by METARs form (0520 UTC 26 September 2016)
found at http://aviationweather.gov/adds/metars/
 
KFAY 260520Z 2606/2706 14004KT P6SM OVC018 
     FM261600 16004KT P6SM BKN035 
     FM270300 19004KT P6SM OVC100